Aviation Digital Data Service (ADDS)

Output produced by METARs form (1602 UTC 31 August 2016)
found at http://aviationweather.gov/adds/metars/
 
KEWR 311538Z 3116/0118 VRB05KT P6SM FEW035 BKN250 
     FM311700 21006KT P6SM SCT050 BKN250 
     FM312100 16010KT P6SM SCT050 BKN150 
     FM010000 18007KT P6SM BKN100 
     FM010600 24005KT 6SM -SHRA BKN050 
     FM010900 26006KT 6SM -SHRA BKN030 
     FM011500 28010KT P6SM BKN050